Time;durP1;ratioP1;P1;durP2;ratioP2;P2;SDS_P1;SDS_P2;PMS_P1;PMS_P2;Temp;Humidity;BMP_temperature;BMP_pressure;BME280_temperature;BME280_humidity;BME280_pressure;Samples;Min_cycle;Max_cycle;Signal;HPM_P1;HPM_P2
2021/07/18 00:02:11;;;;;;;11.43;4.53;;;;;;;17.22;100.00;101993.94;6276357;28;20420;-76
2021/07/18 00:05:13;;;;;;;11.48;4.22;;;;;;;17.18;100.00;101995.94;6276392;28;20056;-76
2021/07/18 00:08:14;;;;;;;10.68;3.92;;;;;;;17.23;100.00;101996.50;6276046;28;20053;-76
2021/07/18 00:11:16;;;;;;;12.85;4.35;;;;;;;17.19;100.00;101999.44;6276142;28;20419;-75
2021/07/18 00:14:18;;;;;;;10.93;4.20;;;;;;;17.25;100.00;101991.94;6274866;28;20053;-76
2021/07/18 00:17:20;;;;;;;12.63;4.75;;;;;;;17.20;100.00;101995.81;6276221;28;20055;-75
2021/07/18 00:20:21;;;;;;;14.68;4.40;;;;;;;17.07;100.00;101984.22;6276161;28;20053;-76
2021/07/18 00:23:23;;;;;;;11.77;4.47;;;;;;;17.07;100.00;101992.19;6275777;28;20049;-76
2021/07/18 00:26:24;;;;;;;13.48;4.47;;;;;;;17.10;100.00;101984.91;6276028;28;20086;-76
2021/07/18 00:29:27;;;;;;;12.80;4.30;;;;;;;17.24;100.00;101989.38;6275660;28;20053;-76
2021/07/18 00:32:29;;;;;;;9.90;4.00;;;;;;;17.18;100.00;101990.63;6276158;28;20515;-76
2021/07/18 00:35:30;;;;;;;7.95;3.90;;;;;;;17.03;100.00;101985.38;6275144;28;20045;-76
2021/07/18 00:38:31;;;;;;;20.30;4.55;;;;;;;16.98;100.00;101993.59;6275480;28;20056;-77
2021/07/18 00:41:33;;;;;;;14.70;4.45;;;;;;;16.92;100.00;101994.00;6274953;28;20055;-76
2021/07/18 00:44:36;;;;;;;14.40;4.82;;;;;;;17.02;100.00;101997.78;6275212;28;20144;-76
2021/07/18 00:47:40;;;;;;;14.80;4.40;;;;;;;16.88;100.00;101993.31;6275331;28;20049;-76
2021/07/18 00:50:44;;;;;;;11.90;4.43;;;;;;;16.90;100.00;101994.09;6275354;28;20589;-76
2021/07/18 00:53:45;;;;;;;8.02;3.45;;;;;;;17.01;100.00;101998.75;6275099;28;20060;-75
2021/07/18 00:56:47;;;;;;;10.73;3.92;;;;;;;16.92;100.00;101999.31;6275405;28;20440;-76
2021/07/18 00:59:50;;;;;;;11.00;4.18;;;;;;;16.78;100.00;101992.16;6275139;28;20049;-75
2021/07/18 01:02:54;;;;;;;17.58;4.63;;;;;;;16.86;100.00;101997.88;6275313;28;20060;-76
2021/07/18 01:05:57;;;;;;;9.18;4.50;;;;;;;16.78;100.00;101994.81;6273390;28;20060;-76
2021/07/18 01:08:58;;;;;;;15.50;4.63;;;;;;;16.83;100.00;101992.72;6274749;28;20511;-78
2021/07/18 01:11:59;;;;;;;16.25;4.32;;;;;;;16.85;100.00;101998.81;6275119;28;20052;-76
2021/07/18 01:15:03;;;;;;;11.75;4.57;;;;;;;16.72;100.00;101993.38;6274630;28;20053;-76
2021/07/18 01:18:05;;;;;;;12.93;4.80;;;;;;;16.72;100.00;102004.00;6275109;28;20045;-76
2021/07/18 01:21:07;;;;;;;11.57;4.30;;;;;;;16.84;100.00;101996.25;6274943;28;20052;-75
2021/07/18 01:24:14;;;;;;;14.63;4.53;;;;;;;16.71;100.00;101999.63;6274755;28;20450;-76
2021/07/18 01:27:15;;;;;;;14.65;4.97;;;;;;;16.75;100.00;102002.94;6274777;28;20053;-76
2021/07/18 01:30:17;;;;;;;14.45;4.60;;;;;;;16.78;100.00;102000.13;6274498;28;20041;-76
2021/07/18 01:33:18;;;;;;;14.13;4.93;;;;;;;16.78;100.00;102004.59;6274418;28;20439;-75
2021/07/18 01:36:20;;;;;;;17.75;5.32;;;;;;;16.70;100.00;102007.66;6274229;28;20515;-75
2021/07/18 01:39:23;;;;;;;15.02;5.82;;;;;;;16.70;100.00;102011.16;6274344;28;20055;-76
2021/07/18 01:42:25;;;;;;;13.65;5.45;;;;;;;16.56;100.00;101999.66;6274556;28;20499;-76
2021/07/18 01:45:27;;;;;;;11.57;4.93;;;;;;;16.54;100.00;102004.19;6274404;28;20045;-77
2021/07/18 01:48:28;;;;;;;13.23;4.45;;;;;;;16.59;100.00;101994.16;6274368;28;20049;-75
2021/07/18 01:51:30;;;;;;;12.18;4.53;;;;;;;16.50;100.00;101995.56;6274111;28;20052;-76
2021/07/18 01:54:32;;;;;;;12.68;5.72;;;;;;;16.57;100.00;102002.19;6273920;28;20468;-76
2021/07/18 01:57:34;;;;;;;11.55;5.20;;;;;;;16.52;100.00;102001.63;6274163;28;20416;-76
2021/07/18 02:00:35;;;;;;;11.48;5.07;;;;;;;16.53;100.00;101999.81;6273811;28;20412;-76
2021/07/18 02:03:37;;;;;;;10.90;5.47;;;;;;;16.55;100.00;101998.78;6274067;28;20071;-76
2021/07/18 02:06:38;;;;;;;16.75;5.40;;;;;;;16.54;100.00;101996.25;6274440;28;20053;-76
2021/07/18 02:09:41;;;;;;;16.48;5.38;;;;;;;16.57;100.00;101996.03;6274117;28;20060;-76
2021/07/18 02:12:42;;;;;;;10.20;4.20;;;;;;;16.45;100.00;102001.13;6273777;28;20404;-77
2021/07/18 02:15:43;;;;;;;12.90;4.72;;;;;;;16.48;100.00;101994.78;6273364;28;20428;-75
2021/07/18 02:18:46;;;;;;;11.77;4.95;;;;;;;16.49;100.00;101989.41;6273668;28;20413;-76
2021/07/18 02:21:47;;;;;;;10.98;5.50;;;;;;;16.47;100.00;101998.38;6273941;28;20041;-76
2021/07/18 02:24:50;;;;;;;12.25;4.70;;;;;;;16.44;100.00;101995.91;6273529;28;20053;-75
2021/07/18 02:27:51;;;;;;;14.73;5.30;;;;;;;16.34;100.00;101998.22;6273500;28;20052;-76
2021/07/18 02:30:53;;;;;;;13.68;4.88;;;;;;;16.33;100.00;102001.84;6273415;28;20049;-76
2021/07/18 02:33:54;;;;;;;10.90;4.90;;;;;;;16.35;100.00;101999.97;6273101;28;20052;-76
2021/07/18 02:36:56;;;;;;;14.80;5.45;;;;;;;16.43;100.00;101988.88;6273074;28;20048;-75
2021/07/18 02:39:59;;;;;;;12.27;4.93;;;;;;;16.45;100.00;101990.53;6272848;28;20049;-76
2021/07/18 02:43:01;;;;;;;11.75;4.78;;;;;;;16.48;100.00;101984.16;6273127;28;20056;-75
2021/07/18 02:46:02;;;;;;;14.52;5.18;;;;;;;16.46;100.00;101986.06;6272703;28;20053;-76
2021/07/18 02:49:05;;;;;;;16.13;4.72;;;;;;;16.28;100.00;101981.81;6273242;28;20055;-76
2021/07/18 02:52:10;;;;;;;11.13;4.40;;;;;;;16.26;100.00;101975.72;6272721;28;20519;-76
2021/07/18 02:55:14;;;;;;;11.63;4.57;;;;;;;16.27;100.00;101980.97;6273049;28;20050;-76
2021/07/18 02:58:15;;;;;;;13.95;4.78;;;;;;;16.24;100.00;101981.13;6272697;28;20397;-75
2021/07/18 03:01:17;;;;;;;21.42;4.80;;;;;;;16.22;100.00;101975.06;6272810;28;20064;-75
2021/07/18 03:04:18;;;;;;;9.57;4.00;;;;;;;16.24;100.00;101978.47;6272604;28;20049;-75
2021/07/18 03:07:19;;;;;;;17.27;5.07;;;;;;;16.29;100.00;101968.47;6272417;28;20493;-76
2021/07/18 03:10:23;;;;;;;13.10;4.78;;;;;;;16.22;100.00;101981.22;6272264;28;20045;-76
2021/07/18 03:13:24;;;;;;;13.82;4.18;;;;;;;16.24;100.00;101981.13;6272511;28;20511;-76
2021/07/18 03:16:25;;;;;;;9.80;4.88;;;;;;;16.24;100.00;101983.78;6272674;28;20045;-78
2021/07/18 03:19:27;;;;;;;14.43;4.30;;;;;;;16.27;100.00;101986.28;6272007;28;20075;-75
2021/07/18 03:22:29;;;;;;;12.85;5.75;;;;;;;16.23;100.00;101982.09;6272097;28;20480;-77
2021/07/18 03:25:32;;;;;;;16.17;5.00;;;;;;;16.24;100.00;101986.44;6271677;28;20068;-78
2021/07/18 03:28:33;;;;;;;14.07;4.35;;;;;;;16.22;100.00;101986.53;6271396;28;20044;-78
2021/07/18 03:31:34;;;;;;;8.98;4.10;;;;;;;16.18;100.00;101982.34;6271762;28;20048;-76
2021/07/18 03:34:36;;;;;;;12.25;4.72;;;;;;;16.08;100.00;101988.25;6271605;28;20049;-78
2021/07/18 03:37:38;;;;;;;13.07;5.18;;;;;;;16.10;100.00;101986.38;6271810;28;20419;-76
2021/07/18 03:40:41;;;;;;;13.60;5.63;;;;;;;16.10;100.00;101983.72;6271634;28;20045;-78
2021/07/18 03:43:42;;;;;;;13.95;4.65;;;;;;;16.07;100.00;101994.50;6271841;28;20421;-77
2021/07/18 03:46:43;;;;;;;11.60;4.65;;;;;;;16.11;100.00;101985.44;6271572;28;20056;-76
2021/07/18 03:49:45;;;;;;;8.98;3.95;;;;;;;16.05;100.00;101980.47;6271684;28;20097;-76
2021/07/18 03:52:47;;;;;;;14.43;4.35;;;;;;;16.05;100.00;101984.00;6271587;28;20044;-79
2021/07/18 03:55:50;;;;;;;15.00;4.47;;;;;;;16.04;100.00;101984.94;6271557;28;20056;-78
2021/07/18 03:58:52;;;;;;;7.45;3.80;;;;;;;16.03;100.00;101985.84;6271629;28;20045;-78
2021/07/18 04:01:53;;;;;;;15.68;4.32;;;;;;;16.07;100.00;101983.88;6271748;28;20049;-78
2021/07/18 04:04:55;;;;;;;11.57;5.05;;;;;;;16.07;100.00;101984.75;6271339;28;20055;-78
2021/07/18 04:07:56;;;;;;;11.07;4.13;;;;;;;16.12;100.00;101981.81;6271397;28;20045;-76
2021/07/18 04:10:58;;;;;;;8.82;4.22;;;;;;;16.14;100.00;101988.78;6271269;28;20064;-78
2021/07/18 04:14:00;;;;;;;11.80;4.60;;;;;;;16.12;100.00;101989.78;6271277;28;20045;-76
2021/07/18 04:17:01;;;;;;;11.23;4.05;;;;;;;16.13;100.00;101992.38;6271687;28;20053;-77
2021/07/18 04:20:04;;;;;;;8.57;3.88;;;;;;;16.15;100.00;102001.09;6270934;28;20049;-76
2021/07/18 04:23:06;;;;;;;8.88;3.40;;;;;;;16.15;100.00;102002.88;6271203;28;20048;-76
2021/07/18 04:26:08;;;;;;;11.45;4.38;;;;;;;16.21;100.00;102005.16;6271294;28;20053;-76
2021/07/18 04:29:09;;;;;;;7.38;3.95;;;;;;;16.07;100.00;102005.97;6271441;28;20049;-75
2021/07/18 04:32:11;;;;;;;17.83;4.95;;;;;;;16.04;100.00;101992.88;6271372;28;20052;-76
2021/07/18 04:35:14;;;;;;;13.07;4.13;;;;;;;16.03;100.00;101991.16;6267052;28;20041;-76
2021/07/18 04:38:15;;;;;;;10.27;3.67;;;;;;;16.10;100.00;101996.97;6256588;28;20041;-77
2021/07/18 04:41:18;;;;;;;10.52;4.03;;;;;;;16.10;100.00;101995.19;6265852;28;20071;-75
2021/07/18 04:44:20;;;;;;;14.13;4.40;;;;;;;16.13;100.00;101989.72;6260729;28;20052;-76
2021/07/18 04:47:21;;;;;;;13.50;4.25;;;;;;;16.16;100.00;101983.38;6261974;28;20408;-79
2021/07/18 04:50:25;;;;;;;6.82;3.72;;;;;;;16.28;100.00;101987.13;6261539;28;20056;-75
2021/07/18 04:53:27;;;;;;;15.05;4.70;;;;;;;16.17;100.00;101985.09;6261047;28;20048;-76
2021/07/18 04:56:30;;;;;;;15.57;5.00;;;;;;;16.24;100.00;101983.78;6262309;28;20060;-76
2021/07/18 04:59:31;;;;;;;12.98;4.72;;;;;;;16.24;100.00;101982.00;6260621;28;20049;-75
2021/07/18 05:02:32;;;;;;;11.27;4.45;;;;;;;16.30;100.00;101979.91;6258146;28;20056;-75
2021/07/18 05:05:34;;;;;;;15.05;4.32;;;;;;;16.31;100.00;101981.66;6250461;28;20057;-75
2021/07/18 05:08:35;;;;;;;12.93;4.90;;;;;;;16.32;100.00;101989.50;6250071;28;20057;-77
2021/07/18 05:11:38;;;;;;;11.52;4.70;;;;;;;16.41;100.00;101998.75;6250196;28;20042;-78
2021/07/18 05:14:41;;;;;;;11.73;4.35;;;;;;;16.44;100.00;102003.84;6249755;28;20053;-76
2021/07/18 05:17:43;;;;;;;12.27;3.75;;;;;;;16.70;100.00;102002.34;6250160;28;20050;-76
2021/07/18 05:20:44;;;;;;;8.20;4.28;;;;;;;16.81;100.00;102004.41;6249915;28;20433;-76
2021/07/18 05:23:47;;;;;;;12.13;3.97;;;;;;;16.88;100.00;102005.75;6259578;28;20057;-76
2021/07/18 05:26:49;;;;;;;12.60;4.47;;;;;;;16.69;100.00;102005.94;6267560;28;20408;-76
2021/07/18 05:29:51;;;;;;;12.27;3.90;;;;;;;16.71;100.00;102010.22;6274697;28;20049;-77
2021/07/18 05:32:52;;;;;;;13.15;5.35;;;;;;;16.91;100.00;102008.22;6274110;28;20041;-75
2021/07/18 05:35:55;;;;;;;11.63;4.80;;;;;;;16.94;100.00;102014.22;6262126;28;20052;-75
2021/07/18 05:38:56;;;;;;;18.73;5.15;;;;;;;16.81;100.00;102015.03;6252135;28;20059;-75
2021/07/18 05:41:59;;;;;;;12.23;4.75;;;;;;;16.84;100.00;102014.81;6255898;28;20041;-74
2021/07/18 05:45:01;;;;;;;11.75;5.30;;;;;;;16.81;100.00;102009.72;6260515;28;20052;-76
2021/07/18 05:48:02;;;;;;;17.45;5.55;;;;;;;16.85;100.00;102003.25;6258161;28;20052;-75
2021/07/18 05:51:04;;;;;;;17.92;5.10;;;;;;;17.13;100.00;101995.34;6255877;28;20042;-76
2021/07/18 05:54:05;;;;;;;17.30;5.28;;;;;;;16.94;100.00;101990.31;6260471;28;20053;-75
2021/07/18 05:57:08;;;;;;;13.73;5.50;;;;;;;16.95;100.00;102001.78;6261019;28;20064;-77
2021/07/18 06:00:14;;;;;;;14.57;4.97;;;;;;;17.18;100.00;102005.69;6267435;28;20056;-74
2021/07/18 06:03:15;;;;;;;16.92;4.95;;;;;;;17.09;100.00;102000.94;6273470;28;20496;-74
2021/07/18 06:06:16;;;;;;;17.25;4.90;;;;;;;17.22;100.00;102007.22;6256441;28;20056;-75
2021/07/18 06:09:18;;;;;;;20.70;5.57;;;;;;;17.11;100.00;102017.63;6261254;28;20053;-74
2021/07/18 06:12:21;;;;;;;12.02;4.47;;;;;;;17.16;100.00;102010.25;6260369;28;20045;-76
2021/07/18 06:15:22;;;;;;;16.55;4.95;;;;;;;17.55;100.00;102017.56;6266719;28;20128;-76
2021/07/18 06:18:24;;;;;;;14.93;5.05;;;;;;;17.35;100.00;102016.16;6264688;28;20052;-75
2021/07/18 06:21:25;;;;;;;14.68;4.45;;;;;;;17.39;100.00;102020.31;6259246;28;20041;-75
2021/07/18 06:24:26;;;;;;;12.35;4.40;;;;;;;17.52;100.00;102019.56;6261228;28;20056;-75
2021/07/18 06:27:29;;;;;;;13.82;5.18;;;;;;;17.54;100.00;102021.19;6258923;28;20041;-75
2021/07/18 06:30:30;;;;;;;11.48;4.45;;;;;;;17.61;100.00;102017.16;6253089;28;20050;-74
2021/07/18 06:33:32;;;;;;;13.88;4.97;;;;;;;17.56;100.00;102019.25;6257632;28;20038;-76
2021/07/18 06:36:33;;;;;;;11.10;5.78;;;;;;;17.61;100.00;102019.84;6265562;28;20045;-76
2021/07/18 06:39:34;;;;;;;16.55;5.80;;;;;;;17.82;100.00;102024.78;6261176;28;20497;-76
2021/07/18 06:42:37;;;;;;;9.77;5.07;;;;;;;17.99;100.00;102029.91;6248320;28;20563;-75
2021/07/18 06:45:38;;;;;;;14.75;4.68;;;;;;;17.66;100.00;102025.72;6247688;28;20049;-75
2021/07/18 06:48:40;;;;;;;16.25;5.50;;;;;;;17.75;100.00;102029.63;6247751;28;20045;-76
2021/07/18 06:51:41;;;;;;;13.20;5.30;;;;;;;17.87;100.00;102028.00;6247497;28;20049;-76
2021/07/18 06:54:42;;;;;;;10.05;5.15;;;;;;;17.75;100.00;102019.00;6247287;28;20049;-76
2021/07/18 06:57:49;;;;;;;17.10;5.47;;;;;;;17.64;100.00;102016.13;6247650;28;20049;-75
2021/07/18 07:00:50;;;;;;;12.25;6.03;;;;;;;17.64;100.00;102017.00;6247794;28;20050;-76
2021/07/18 07:03:51;;;;;;;13.90;6.15;;;;;;;17.60;100.00;102017.28;6247834;28;20401;-76
2021/07/18 07:06:53;;;;;;;11.50;6.65;;;;;;;17.79;100.00;102019.66;6247703;28;20057;-75
2021/07/18 07:09:54;;;;;;;10.13;6.53;;;;;;;17.63;100.00;102017.09;6247570;28;20073;-77
2021/07/18 07:12:57;;;;;;;12.77;6.63;;;;;;;17.72;100.00;102027.16;6247808;28;20046;-76
2021/07/18 07:15:58;;;;;;;10.05;6.22;;;;;;;17.58;100.00;102016.53;6247135;28;20114;-77
2021/07/18 07:18:59;;;;;;;22.15;8.45;;;;;;;17.65;100.00;102025.81;6247255;28;20486;-75
2021/07/18 07:22:01;;;;;;;15.68;7.18;;;;;;;17.50;100.00;102015.19;6247591;28;20045;-75
2021/07/18 07:25:03;;;;;;;21.88;7.95;;;;;;;17.48;100.00;102019.72;6247092;28;20591;-76
2021/07/18 07:28:06;;;;;;;19.85;7.38;;;;;;;17.78;100.00;102017.97;6246981;28;20072;-75
2021/07/18 07:31:07;;;;;;;14.15;7.70;;;;;;;17.71;100.00;102020.09;6247034;28;20056;-75
2021/07/18 07:34:08;;;;;;;12.82;6.38;;;;;;;17.49;100.00;102021.47;6246705;28;20049;-75
2021/07/18 07:37:10;;;;;;;14.15;7.50;;;;;;;17.44;100.00;102025.34;6246992;28;20049;-76
2021/07/18 07:40:13;;;;;;;17.42;7.60;;;;;;;17.57;100.00;102023.63;6247351;28;20049;-76
2021/07/18 07:43:16;;;;;;;14.27;6.78;;;;;;;17.55;100.00;102022.88;6247173;28;20455;-76
2021/07/18 07:46:17;;;;;;;13.35;4.85;;;;;;;17.63;100.00;102025.91;6246783;28;20049;-75
2021/07/18 07:49:18;;;;;;;11.30;5.43;;;;;;;17.72;100.00;102033.31;6246795;28;20072;-74
2021/07/18 07:52:20;;;;;;;10.57;5.05;;;;;;;17.74;100.00;102030.59;6258725;28;20045;-75
2021/07/18 07:55:21;;;;;;;12.07;4.85;;;;;;;17.72;100.00;102030.66;6252878;28;20053;-75
2021/07/18 07:58:24;;;;;;;12.93;4.30;;;;;;;17.84;99.94;102034.38;6270965;28;20057;-75
2021/07/18 08:01:25;;;;;;;10.77;5.05;;;;;;;17.85;99.21;102036.09;6248960;28;20061;-75
2021/07/18 08:04:27;;;;;;;10.60;4.47;;;;;;;17.70;99.79;102029.03;6244990;28;20054;-75
2021/07/18 08:07:28;;;;;;;10.32;4.47;;;;;;;17.70;100.00;102026.38;6247735;28;20045;-75
2021/07/18 08:10:29;;;;;;;7.85;3.97;;;;;;;17.76;100.00;102020.72;6270492;28;20052;-74
2021/07/18 08:13:32;;;;;;;9.52;3.38;;;;;;;17.77;100.00;102025.09;6270751;28;20447;-75
2021/07/18 08:16:33;;;;;;;7.93;3.15;;;;;;;17.72;100.00;102024.50;6274344;28;20048;-75
2021/07/18 08:19:35;;;;;;;7.30;3.10;;;;;;;17.80;100.00;102029.34;6275967;28;20492;-76
2021/07/18 08:22:37;;;;;;;9.55;2.85;;;;;;;18.10;97.45;102030.03;6275371;28;20041;-75
2021/07/18 08:25:38;;;;;;;8.38;2.90;;;;;;;17.92;96.84;102024.09;6274457;28;20558;-74
2021/07/18 08:28:41;;;;;;;11.68;3.50;;;;;;;17.89;99.29;102020.78;6275673;28;20060;-74
2021/07/18 08:31:42;;;;;;;10.95;2.78;;;;;;;18.10;97.15;102034.53;6275579;28;20521;-74
2021/07/18 08:34:44;;;;;;;10.63;3.15;;;;;;;18.02;99.05;102024.34;6274697;28;20071;-75
2021/07/18 08:37:45;;;;;;;7.22;3.20;;;;;;;18.10;97.81;102018.56;6275775;28;20053;-75
2021/07/18 08:40:49;;;;;;;9.10;3.33;;;;;;;18.02;97.22;102019.03;6275267;28;20452;-74
2021/07/18 08:43:52;;;;;;;9.88;3.40;;;;;;;18.19;96.84;102012.63;6274448;28;20067;-74
2021/07/18 08:46:53;;;;;;;7.53;3.40;;;;;;;18.15;94.76;102011.97;6274606;28;20048;-75
2021/07/18 08:49:55;;;;;;;6.90;3.30;;;;;;;18.28;94.33;102017.34;6274994;28;20060;-74
2021/07/18 08:52:56;;;;;;;15.80;3.38;;;;;;;18.15;96.32;102014.63;6275099;28;20159;-75
2021/07/18 08:55:58;;;;;;;7.50;2.85;;;;;;;18.29;96.66;102023.53;6274811;28;20060;-77
2021/07/18 08:59:01;;;;;;;10.07;2.83;;;;;;;18.32;94.39;102024.19;6275420;28;20052;-77
2021/07/18 09:02:02;;;;;;;9.38;2.80;;;;;;;18.37;94.77;102024.75;6274981;28;20495;-74
2021/07/18 09:05:04;;;;;;;10.20;3.13;;;;;;;18.43;95.16;102024.31;6274849;28;20053;-74
2021/07/18 09:08:08;;;;;;;10.00;3.08;;;;;;;18.56;91.56;102023.50;6267936;28;20421;-77
2021/07/18 09:11:21;;;;;;;6.40;2.90;;;;;;;18.61;92.73;102011.59;6260067;28;20075;-78
2021/07/18 09:14:24;;;;;;;10.45;2.80;;;;;;;18.60;92.19;102012.56;6260347;28;20045;-76
2021/07/18 09:17:25;;;;;;;6.22;2.50;;;;;;;18.59;92.13;102018.00;6260705;28;20056;-76
2021/07/18 09:20:38;;;;;;;11.82;3.08;;;;;;;18.63;93.57;102014.19;6267198;28;20409;-75
2021/07/18 09:23:40;;;;;;;5.70;3.03;;;;;;;18.74;91.94;102015.19;6274702;28;20435;-77
2021/07/18 09:26:41;;;;;;;8.27;3.05;;;;;;;18.68;93.02;102017.38;6273135;28;20045;-75
2021/07/18 09:29:47;;;;;;;10.32;3.17;;;;;;;18.74;94.45;102020.50;6274149;28;20053;-75
2021/07/18 09:32:49;;;;;;;8.90;2.75;;;;;;;18.94;94.45;102026.28;6273124;28;20048;-75
2021/07/18 09:35:50;;;;;;;8.40;3.05;;;;;;;19.13;92.37;102016.09;6269026;28;20053;-75
2021/07/18 09:39:05;;;;;;;10.85;3.03;;;;;;;19.23;90.44;102017.16;6255829;28;20053;-75
2021/07/18 09:42:07;;;;;;;7.00;3.08;;;;;;;19.14;89.82;102020.44;6258981;28;20492;-76
2021/07/18 09:45:17;;;;;;;9.00;3.53;;;;;;;19.19;89.58;102006.81;6272633;28;20045;-75
2021/07/18 09:48:18;;;;;;;7.20;3.67;;;;;;;19.23;92.19;102009.16;6273619;28;20397;-76
2021/07/18 09:51:23;;;;;;;6.93;3.08;;;;;;;19.40;93.74;102001.81;6258650;28;20057;-76
2021/07/18 09:54:30;;;;;;;6.32;3.30;;;;;;;19.43;89.21;101996.22;6248339;28;20497;-75
2021/07/18 09:57:35;;;;;;;5.72;3.40;;;;;;;19.55;90.08;101987.38;6248950;28;20061;-75
2021/07/18 10:00:40;;;;;;;8.82;2.70;;;;;;;19.52;88.52;101983.09;6255186;28;20067;-75
2021/07/18 10:03:46;;;;;;;8.20;2.90;;;;;;;19.73;88.39;101983.41;6273555;28;20048;-74
2021/07/18 10:06:47;;;;;;;11.02;3.92;;;;;;;19.69;87.40;101983.75;6273024;28;20048;-75
2021/07/18 10:09:49;;;;;;;6.93;3.47;;;;;;;19.83;86.57;101982.75;6273301;28;20056;-74
2021/07/18 10:12:50;;;;;;;8.20;3.35;;;;;;;19.73;86.21;101980.75;6272923;28;20516;-75
2021/07/18 10:15:53;;;;;;;12.88;3.63;;;;;;;19.89;87.51;101983.13;6273138;28;20164;-74
2021/07/18 10:18:56;;;;;;;6.35;3.58;;;;;;;19.84;86.64;101976.44;6273088;28;20053;-75
2021/07/18 10:21:58;;;;;;;8.23;4.13;;;;;;;19.81;87.07;101971.34;6272855;28;20056;-75
2021/07/18 10:24:59;;;;;;;6.32;3.58;;;;;;;19.91;88.06;101973.22;6272824;28;20056;-75
2021/07/18 10:28:01;;;;;;;6.07;3.67;;;;;;;20.14;86.85;101978.69;6296589;22;20056;-82
2021/07/18 10:31:12;;;;;;;7.88;3.10;;;;;;;20.25;86.24;101974.22;6287466;28;20060;-79
2021/07/18 10:34:14;;;;;;;6.30;3.22;;;;;;;20.36;86.21;101957.44;6278960;28;20042;-78
2021/07/18 10:37:16;;;;;;;5.35;3.42;;;;;;;20.68;82.93;101973.69;6275839;28;20053;-80
2021/07/18 10:40:21;;;;;;;6.85;2.92;;;;;;;20.60;81.92;101961.91;6259564;28;20049;-80
2021/07/18 10:43:35;;;;;;;5.50;3.00;;;;;;;20.51;83.13;101950.94;6246317;28;20057;-78
2021/07/18 10:46:54;;;;;;;6.63;3.15;;;;;;;20.65;83.45;101949.03;6227666;28;20487;-78
2021/07/18 10:50:00;;;;;;;6.75;3.15;;;;;;;20.73;82.99;101943.97;6235008;28;20072;-78
2021/07/18 10:53:16;;;;;;;4.88;2.63;;;;;;;20.80;82.82;101937.16;6231876;28;20046;-77
2021/07/18 10:56:19;;;;;;;7.43;3.28;;;;;;;21.01;80.17;101935.50;6229024;28;20076;-77
2021/07/18 10:59:33;;;;;;;6.80;3.00;;;;;;;21.12;80.60;101941.81;6225175;28;20445;-77
2021/07/18 11:02:36;;;;;;;5.60;3.08;;;;;;;21.29;79.87;101934.16;6224065;28;20051;-76
2021/07/18 11:05:42;;;;;;;8.25;2.45;;;;;;;21.44;80.68;101941.97;6226616;28;20049;-79
2021/07/18 11:09:14;;;;;;;5.15;2.28;;;;;;;21.65;79.21;101936.69;6230649;28;20057;-79
2021/07/18 11:12:22;;;;;;;5.35;2.97;;;;;;;21.69;79.48;101939.00;6223208;28;20046;-77
2021/07/18 11:15:34;;;;;;;6.97;2.83;;;;;;;21.98;75.99;101925.91;6227299;28;20050;-77
2021/07/18 11:18:37;;;;;;;5.53;2.60;;;;;;;21.86;78.49;101929.59;6227077;28;20057;-80
2021/07/18 11:21:48;;;;;;;4.28;2.10;;;;;;;22.10;76.77;101917.84;6231335;28;20053;-77
2021/07/18 11:24:52;;;;;;;7.57;2.40;;;;;;;22.59;73.54;101917.25;6226079;28;20052;-80
2021/07/18 11:27:54;;;;;;;4.18;2.03;;;;;;;22.40;72.25;101920.66;6231849;28;20054;-76
2021/07/18 11:31:15;;;;;;;5.57;2.38;;;;;;;22.59;73.38;101905.69;6228315;28;20057;-77
2021/07/18 11:34:20;;;;;;;4.53;2.17;;;;;;;22.85;72.61;101900.75;6229972;28;20049;-80
2021/07/18 11:37:22;;;;;;;7.30;2.50;;;;;;;23.05;70.98;101902.56;6230153;28;20133;-81
2021/07/18 11:40:27;;;;;;;8.63;2.15;;;;;;;23.20;69.81;101894.97;6229394;28;20042;-78
2021/07/18 11:43:29;;;;;;;3.50;2.00;;;;;;;23.66;69.85;101899.78;6227690;28;20053;-79
2021/07/18 11:46:32;;;;;;;11.10;2.80;;;;;;;24.02;68.44;101894.72;6227977;28;20145;-77
2021/07/18 11:49:41;;;;;;;3.22;1.73;;;;;;;24.39;65.96;101883.28;6252882;28;20052;-77
2021/07/18 11:52:42;;;;;;;2.88;1.90;;;;;;;24.49;65.97;101884.13;6259497;28;20048;-77
2021/07/18 11:55:43;;;;;;;5.18;1.90;;;;;;;24.91;63.46;101881.88;6257590;28;20413;-78
2021/07/18 11:58:45;;;;;;;5.90;1.88;;;;;;;24.98;65.46;101874.03;6250140;28;20406;-77
2021/07/18 12:01:49;;;;;;;4.57;2.00;;;;;;;25.28;61.70;101867.56;6241816;28;20054;-77
2021/07/18 12:05:04;;;;;;;4.15;1.83;;;;;;;25.52;58.04;101872.34;6242414;28;20049;-78
2021/07/18 12:08:06;;;;;;;4.05;1.90;;;;;;;25.51;61.79;101865.28;6246140;28;20052;-78
2021/07/18 12:11:08;;;;;;;3.83;1.63;;;;;;;25.80;60.57;101863.25;6244092;28;20063;-78
2021/07/18 12:14:12;;;;;;;5.25;1.70;;;;;;;26.01;61.92;101862.09;6227467;28;20062;-77
2021/07/18 12:17:15;;;;;;;3.50;1.75;;;;;;;26.33;60.40;101868.72;6251851;28;20053;-78
2021/07/18 12:20:22;;;;;;;6.55;1.92;;;;;;;25.84;56.49;101847.63;6269539;28;20045;-78
2021/07/18 12:23:25;;;;;;;7.10;1.50;;;;;;;25.81;59.85;101837.19;6273198;28;20045;-80
2021/07/18 12:26:27;;;;;;;6.25;1.88;;;;;;;25.91;58.15;101840.63;6271208;28;20096;-79
2021/07/18 12:29:30;;;;;;;3.83;1.48;;;;;;;26.13;56.21;101833.06;6271283;28;20056;-79
2021/07/18 12:32:34;;;;;;;5.85;1.70;;;;;;;25.91;57.28;101835.25;6269917;28;20052;-79
2021/07/18 12:35:37;;;;;;;6.47;1.67;;;;;;;26.33;56.33;101826.44;6268476;28;20069;-79
2021/07/18 12:38:38;;;;;;;2.63;1.48;;;;;;;26.31;55.27;101810.44;6267723;28;20044;-78
2021/07/18 12:41:40;;;;;;;3.72;1.50;;;;;;;26.11;57.10;101819.72;6269630;28;20060;-78
2021/07/18 12:44:47;;;;;;;11.00;2.13;;;;;;;26.22;56.93;101824.88;6269450;28;20049;-79
2021/07/18 12:47:50;;;;;;;8.00;1.80;;;;;;;26.44;56.14;101826.22;6264157;28;20056;-78
2021/07/18 12:50:53;;;;;;;3.53;1.40;;;;;;;26.56;54.55;101810.59;6261394;28;20053;-78
2021/07/18 12:53:55;;;;;;;4.32;1.65;;;;;;;26.24;55.68;101811.22;6261733;28;20086;-79
2021/07/18 12:56:56;;;;;;;3.30;1.70;;;;;;;25.76;54.68;101812.56;6257530;28;20049;-80
2021/07/18 13:00:01;;;;;;;4.53;1.50;;;;;;;25.97;55.06;101810.34;6258874;28;20129;-80
2021/07/18 13:03:11;;;;;;;6.63;1.80;;;;;;;26.30;53.50;101806.06;6259873;28;20463;-76
2021/07/18 13:06:16;;;;;;;7.95;1.42;;;;;;;26.84;52.60;101808.53;6261236;28;20053;-77
2021/07/18 13:09:22;;;;;;;5.85;1.60;;;;;;;26.65;54.89;101798.00;6250315;28;20064;-76
2021/07/18 13:12:27;;;;;;;5.68;1.85;;;;;;;26.82;55.53;101799.78;6249257;28;20429;-77
2021/07/18 13:15:29;;;;;;;1.55;1.23;;;;;;;27.05;52.80;101802.72;6258881;28;20052;-78
2021/07/18 13:18:35;;;;;;;3.42;1.40;;;;;;;26.89;50.74;101794.56;6259812;28;20512;-78
2021/07/18 13:21:38;;;;;;;2.67;1.30;;;;;;;27.10;56.40;101796.88;6256057;28;20045;-77
2021/07/18 13:24:41;;;;;;;8.77;1.50;;;;;;;27.58;52.27;101789.88;6251803;28;20061;-78
2021/07/18 13:27:42;;;;;;;9.45;1.70;;;;;;;27.32;48.36;101790.84;6256629;28;20053;-78
2021/07/18 13:30:44;;;;;;;6.95;1.83;;;;;;;26.89;52.01;101775.69;6258418;28;20053;-76
2021/07/18 13:33:45;;;;;;;4.38;1.80;;;;;;;27.18;52.75;101784.25;6260885;28;20041;-78
2021/07/18 13:36:56;;;;;;;7.97;1.50;;;;;;;27.45;50.73;101798.47;6260283;28;20049;-78
2021/07/18 13:39:59;;;;;;;8.93;1.50;;;;;;;27.64;50.53;101786.50;6257062;28;20140;-78
2021/07/18 13:43:10;;;;;;;3.65;1.60;;;;;;;27.18;52.31;101783.41;6257188;28;20053;-78
2021/07/18 13:46:11;;;;;;;5.18;1.67;;;;;;;26.95;54.41;101783.13;6255964;28;20053;-78
2021/07/18 13:49:12;;;;;;;4.13;1.83;;;;;;;27.15;49.45;101772.91;6251226;28;20056;-76
2021/07/18 13:52:17;;;;;;;5.47;2.00;;;;;;;27.40;51.34;101766.56;6252015;28;20049;-77
2021/07/18 13:55:19;;;;;;;4.22;1.30;;;;;;;27.94;48.99;101766.94;6251205;28;20052;-78
2021/07/18 13:58:20;;;;;;;4.50;1.88;;;;;;;27.88;47.76;101766.75;6236457;28;20045;-77
2021/07/18 14:01:22;;;;;;;6.03;1.65;;;;;;;27.63;51.68;101765.91;6231428;28;20077;-79